Flight Track Log - Related Links

Times and Time Zones

All times are in EDT time to prevent confusion due to time zone crossing. See the ASQ6159 flight status page for this flight to view local times or setup timezone preferences in your user account.

Time Position Orientation Groundspeed Altitude Reporting Facility
EDT Latitude Longitude Course Direction KTS MPH feet Rate Location/Type
Sat 10:48:04 AM 38.0156 -84.6319 256° West 163 188 2,100  Level Indianapolis Center
Sat 10:49:05 AM 37.9956 -84.6992 249° West 204 235 3,600 1,902 Climbing Indianapolis Center
Sat 10:50:00 AM 37.9216 -84.5852 247° West  Level FlightAware Approximate
Sat 10:50:07 AM 38.0292 -84.7708 301° West 236 272 6,000  Level Indianapolis Center
Sat 10:51:00 AM 37.9049 -84.6803 252° West  Level FlightAware Approximate
Sat 10:51:08 AM 38.0983 -84.8031 340° North 258 297 8,500  Level Indianapolis Center
Sat 10:52:00 AM 37.8784 -84.7716 218° Southwest  Level FlightAware Approximate
Sat 10:52:10 AM 38.1728 -84.8275 346° North 273 314 10,500  Level Indianapolis Center
Sat 10:53:00 AM 37.8512 -84.8605 256° West  Level FlightAware Approximate
Sat 10:53:12 AM 38.2536 -84.8583 343° North 293 337 11,600  Level Indianapolis Center
Sat 10:54:13 AM 38.3611 -84.8950 345° North 336 387 13,000 1,220 Climbing Indianapolis Center
Sat 10:55:15 AM 38.4553 -84.9294 344° North 349 402 14,100 1,171 Climbing Indianapolis Center
Sat 10:56:16 AM 38.5525 -84.9631 345° North 359 413 15,400 1,268 Climbing Indianapolis Center
Sat 10:57:18 AM 38.6425 -84.9958 344° North 360 414 16,700 1,210 Climbing Indianapolis Center
Sat 10:58:20 AM 38.7403 -85.0303 345° North 362 417 17,900 1,415 Climbing Indianapolis Center
Sat 10:59:21 AM 38.8536 -85.0722 344° North 361 415 19,600 1,561 Climbing Indianapolis Center
Sat 11:00:23 AM 38.9497 -85.1075 344° North 358 412 21,100 1,415 Climbing Indianapolis Center
Sat 11:01:24 AM 39.0478 -85.1417 345° North 362 417 22,500 1,366 Climbing Indianapolis Center
Sat 11:02:26 AM 39.1442 -85.1778 344° North 359 413 23,900 1,171 Climbing Indianapolis Center
Sat 11:03:27 AM 39.2428 -85.2139 344° North 365 420 24,900 927 Climbing Indianapolis Center
Sat 11:04:29 AM 39.3442 -85.2497 345° North 373 429 25,800 537 Climbing Indianapolis Center
Sat 11:05:30 AM 39.4469 -85.2886 344° North 380 437 26,000 98 Climbing Indianapolis Center
Sat 11:06:32 AM 39.5558 -85.3278 345° North 400 460 26,000  Level Indianapolis Center
Sat 11:07:33 AM 39.6692 -85.3703 344° North 419 482 26,000  Level Indianapolis Center
Sat 11:08:35 AM 39.8036 -85.4206 344° North 428 493 26,000  Level Indianapolis Center
Sat 11:09:36 AM 39.9192 -85.4631 344° North 430 495 26,000  Level Indianapolis Center
Sat 11:10:38 AM 40.0342 -85.5064 344° North 430 495 26,000  Level Indianapolis Center
Sat 11:11:40 AM 40.1311 -85.5908 326° Northwest 425 489 26,000 75 Level Indianapolis Center
Sat 11:11:58 AM 40.1578 -85.6228 318° Northwest 418 481 26,100 -675 Climbing Chicago Center
Sat 11:13:00 AM 40.2319 -85.7172 316° Northwest 377 434 25,100 -532 Descending Chicago Center
Sat 11:14:02 AM 40.3058 -85.8103 316° Northwest 369 425 25,000 -146 Descending Chicago Center
Sat 11:15:03 AM 40.3828 -85.9089 316° Northwest 383 441 24,800 -537 Descending Chicago Center
Sat 11:16:05 AM 40.4589 -86.0044 316° Northwest 379 436 23,900 -581 Descending Chicago Center
Sat 11:17:07 AM 40.5469 -86.1178 316° Northwest 381 438 23,600 -439 Descending Chicago Center
Sat 11:18:08 AM 40.6303 -86.2269 315° West 418 481 23,000 -293 Descending Chicago Center
Sat 11:19:10 AM 40.7194 -86.3428 315° West 430 495 23,000  Level Chicago Center
Sat 11:20:11 AM 40.8058 -86.4550 316° Northwest 434 499 23,000  Level Chicago Center
Sat 11:21:13 AM 40.8919 -86.5678 315° West 436 502 23,000 -532 Level Chicago Center
Sat 11:22:15 AM 40.9789 -86.6811 315° West 435 501 21,900 -1,854 Descending Chicago Center
Sat 11:23:16 AM 41.0706 -86.8014 315° West 431 496 19,200 -2,390 Descending Chicago Center
Sat 11:24:18 AM 41.1500 -86.9069 315° West 411 473 17,000 -2,341 Descending Chicago Center
Sat 11:25:19 AM 41.2253 -87.0061 315° West 388 447 14,400 -2,439 Descending Chicago Center
Sat 11:26:21 AM 41.2961 -87.1025 314° West 369 425 12,000 -1,610 Descending Chicago Center
Sat 11:27:22 AM 41.3689 -87.1986 315° West 371 427 11,100 -682 Descending Chicago Center
Sat 11:27:49 AM 41.4167 -87.2500 321° Northwest 362 417 11,000  Descending Chicago TRACON
Sat 11:28:43 AM 41.4833 -87.3333 317° Northwest 353 406 11,100  Climbing Chicago TRACON
Sat 11:29:25 AM 41.5308 -87.3903 318° Northwest 355 409 11,000 -58 Descending Chicago Center
Sat 11:30:27 AM 41.6067 -87.4747 320° Northwest 360 414 11,000 -290 Level Chicago Center
Sat 11:31:29 AM 41.6819 -87.5561 321° Northwest 353 406 10,400 -1,109 Descending Chicago Center
Sat 11:32:26 AM 41.7500 -87.6333 320° Northwest 292 336 8,800 -1,784 Descending Chicago TRACON
Sat 11:33:20 AM 41.8000 -87.7000 315° West 288 331 7,100 -900 Descending Chicago TRACON
Sat 11:34:26 AM 41.8833 -87.7167 352° North 294 338 7,000 -48 Descending Chicago TRACON
Sat 11:35:26 AM 41.9667 -87.7167 360° North 258 297 7,000 -526 Level Chicago TRACON
Sat 11:36:20 AM 42.0167 -87.7000 14° North 246 283 6,000 -1,211 Descending Chicago TRACON
Sat 11:37:20 AM 42.0833 -87.6833 11° North 239 275 4,700 -1,053 Descending Chicago TRACON
Sat 11:38:14 AM 42.1167 -87.7333 312° West 198 228 4,000 -700 Descending Chicago TRACON
Sat 11:39:20 AM 42.1000 -87.7833 246° West 179 206 3,300 -636 Descending Chicago TRACON

Login

Don't have an account? Register now (free) for customized features, flight alerts, and more!